Terminal Aerodrome Forecast
Issued by NWS Topeka, KS

Home | Current Version | Previous Version | Graphics & Text | Print | Product List | Glossary On
Versions: 1 2 3 4 5 6 7 8 9 10 11 12 13 14 15 16 17 18 19 20 21 22 23 24 25
000
FTUS43 KTOP 200107 AAA
TAFTOP
TAF AMD
KTOP 200107Z 2001/2024 11004KT 5SM -DZ BR OVC011
     FM200500 11003KT 1SM BR OVC004
     FM200900 11003KT 1/4SM FG OVC002
     FM201500 14006KT 4SM BR OVC003=

USA.gov is the U.S. government's official web portal to all federal, state and local government web resources and services.